createdAt,value
2022-11-01T00:04:27.338Z,172.75
2022-11-01T00:10:00.384Z,172.75
2022-11-01T00:15:32.540Z,171.86
2022-11-01T00:21:04.121Z,171.86
2022-11-01T00:26:35.703Z,171.33
2022-11-01T00:32:07.379Z,171.33
2022-11-01T00:37:39.175Z,170.46
2022-11-01T00:48:40.441Z,171.51
2022-11-01T00:54:12.692Z,173.47
2022-11-01T00:59:44.638Z,173.29
2022-11-01T01:05:16.495Z,174.01
2022-11-01T01:10:48.362Z,173.83
2022-11-01T01:16:19.969Z,174.37
2022-11-01T01:21:51.904Z,174.37
2022-11-01T01:32:53.173Z,176.40
2022-11-01T01:38:25.041Z,177.53
2022-11-01T01:43:56.635Z,180.40
2022-11-01T01:49:28.669Z,179.43
2022-11-01T01:55:00.506Z,180.40
2022-11-01T02:00:32.415Z,177.53
2022-11-01T02:06:04.229Z,177.90
2022-11-01T02:11:36.320Z,175.66
2022-11-01T02:17:09.607Z,177.72
2022-11-01T02:22:40.105Z,177.53
2022-11-01T02:28:11.897Z,177.34
2022-11-01T02:33:43.800Z,177.34
2022-11-01T02:44:47.119Z,182.18
2022-11-01T02:50:19.017Z,181.39
2022-11-01T02:55:50.798Z,184.80
2022-11-01T03:01:24.082Z,183.99
2022-11-01T03:06:55.746Z,184.79
2022-11-01T03:17:59.686Z,185.21
2022-11-01T03:23:31.602Z,185.01
2022-11-01T03:34:35.497Z,189.48
2022-11-01T03:40:07.025Z,185.20
2022-11-01T03:45:39.040Z,188.61
2022-11-01T03:51:10.929Z,189.04
2022-11-01T03:56:42.541Z,185.83
2022-11-01T04:02:14.833Z,186.57
2022-11-01T04:07:46.830Z,189.92
2022-11-01T04:13:18.875Z,185.73
2022-11-01T04:18:50.982Z,186.24
2022-11-01T04:24:22.965Z,185.31
2022-11-01T04:29:54.904Z,186.26
2022-11-01T04:35:27.091Z,185.73
2022-11-01T04:40:59.411Z,184.89
2022-11-01T04:46:31.473Z,188.39
2022-11-01T04:52:03.532Z,189.37
2022-11-01T04:57:35.629Z,187.85
2022-11-01T05:03:07.302Z,190.91
2022-11-01T05:08:39.149Z,191.03
2022-11-01T05:14:11.492Z,191.92
2022-11-01T05:19:43.590Z,193.85
2022-11-01T05:25:15.382Z,192.48
2022-11-01T05:30:47.056Z,194.19
2022-11-01T05:36:18.854Z,196.75
2022-11-01T05:41:50.492Z,201.84
2022-11-01T05:47:22.295Z,206.67
2022-11-01T05:52:54.240Z,202.71
2022-11-01T05:55:06.425Z,202.46
2022-11-01T06:00:38.781Z,203.46
2022-11-01T06:06:10.647Z,198.90
2022-11-01T06:11:42.270Z,196.40
2022-11-01T06:17:14.949Z,195.70
2022-11-01T06:22:46.913Z,192.26
2022-11-01T06:28:18.637Z,191.14
2022-11-01T06:33:50.587Z,190.14
2022-11-01T06:39:22.289Z,189.04
2022-11-01T06:44:54.218Z,188.94
2022-11-01T06:50:26.090Z,185.52
2022-11-01T06:55:57.891Z,187.10
2022-11-01T07:01:29.636Z,181.78
2022-11-01T07:07:01.334Z,184.60
2022-11-01T07:12:33.057Z,182.18
2022-11-01T07:18:05.046Z,182.58
2022-11-01T07:23:36.535Z,179.63
2022-11-01T07:29:08.271Z,178.86
2022-11-01T07:34:40.222Z,176.77
2022-11-01T07:40:11.951Z,177.53
2022-11-01T07:45:43.850Z,176.59
2022-11-01T07:51:15.476Z,175.66
2022-11-01T07:56:47.209Z,180.40
2022-11-01T08:02:19.164Z,182.78
2022-11-01T08:07:50.717Z,183.38
2022-11-01T08:13:22.488Z,181.98
2022-11-01T08:15:45.708Z,185.62
2022-11-01T08:21:17.223Z,181.78
2022-11-01T08:26:49.308Z,179.82
2022-11-01T08:32:20.925Z,174.55
2022-11-01T08:37:52.698Z,170.28
2022-11-01T08:43:24.833Z,163.76
2022-11-01T08:48:56.888Z,158.03
2022-11-01T09:00:00.923Z,146.25
2022-11-01T09:05:32.875Z,135.45
2022-11-01T09:11:04.598Z,132.34
2022-11-01T09:16:36.345Z,129.66
2022-11-01T09:22:08.066Z,127.87
2022-11-01T09:27:39.867Z,126.13
2022-11-01T09:33:11.612Z,123.89
2022-11-01T09:44:14.747Z,122.97
2022-11-01T09:49:46.615Z,123.15
2022-11-01T10:00:49.902Z,119.97
2022-11-01T10:06:21.240Z,119.28
2022-11-01T10:11:53.107Z,118.18
2022-11-01T10:17:24.870Z,118.18
2022-11-01T10:22:56.691Z,116.21
2022-11-01T10:28:28.432Z,115.72
2022-11-01T10:33:59.941Z,115.56
2022-11-01T10:50:34.570Z,114.22
2022-11-01T10:56:06.257Z,112.07
2022-11-01T11:01:38.244Z,111.70
2022-11-01T11:07:09.692Z,110.08
2022-11-01T11:12:50.098Z,109.28
2022-11-01T11:34:56.859Z,107.59
2022-11-01T11:40:28.523Z,106.97
2022-11-01T11:46:00.427Z,106.09
2022-11-01T11:51:32.023Z,105.02
2022-11-01T11:57:03.831Z,104.75
2022-11-01T12:02:35.146Z,105.95
2022-11-01T12:13:39.617Z,106.49
2022-11-01T12:19:12.945Z,106.02
2022-11-01T12:24:44.281Z,105.55
2022-11-01T12:30:15.968Z,106.15
2022-11-01T12:35:47.459Z,106.63
2022-11-01T12:46:48.269Z,107.45
2022-11-01T12:52:19.577Z,107.52
2022-11-01T13:03:20.539Z,107.59
2022-11-01T13:08:52.402Z,107.18
2022-11-01T13:14:24.224Z,107.80
2022-11-01T13:19:56.155Z,107.66
2022-11-01T13:25:28.051Z,107.52
2022-11-01T13:30:59.962Z,106.97
2022-11-01T13:36:31.859Z,107.73
2022-11-01T13:42:03.902Z,107.94
2022-11-01T13:47:36.065Z,108.29
2022-11-01T13:53:08.116Z,106.56
2022-11-01T13:58:39.727Z,107.18
2022-11-01T14:04:11.458Z,107.59
2022-11-01T14:09:43.500Z,106.36
2022-11-01T14:15:15.855Z,106.83
2022-11-01T14:20:47.996Z,106.22
2022-11-01T14:26:20.387Z,106.15
2022-11-01T14:31:52.875Z,106.22
2022-11-01T14:37:24.788Z,106.97
2022-11-01T14:42:56.931Z,106.63
2022-11-01T14:48:29.013Z,107.94
2022-11-01T14:54:01.148Z,107.45
2022-11-01T14:59:33.515Z,107.38
2022-11-01T15:05:05.697Z,108.64
2022-11-01T15:10:37.765Z,109.07
2022-11-01T15:16:09.980Z,108.78
2022-11-01T15:21:46.634Z,109.28
2022-11-01T15:27:14.439Z,109.36
2022-11-01T15:32:46.554Z,110.15
2022-11-01T15:38:20.975Z,110.81
2022-11-01T15:43:50.047Z,110.00
2022-11-01T15:49:21.979Z,111.47
2022-11-01T15:54:53.995Z,110.81
2022-11-01T16:00:26.460Z,111.40
2022-11-01T16:05:59.751Z,111.47
2022-11-01T16:11:29.903Z,112.75
2022-11-01T16:17:01.811Z,113.29
2022-11-01T16:22:33.602Z,113.37
2022-11-01T16:28:05.370Z,113.99
2022-11-01T16:33:36.927Z,114.06
2022-11-01T16:39:08.789Z,114.69
2022-11-01T16:44:40.377Z,115.09
2022-11-01T16:50:12.497Z,115.17
2022-11-01T16:55:44.701Z,115.81
2022-11-01T17:01:16.521Z,115.56
2022-11-01T17:06:48.250Z,115.48
2022-11-01T17:12:20.423Z,116.61
2022-11-01T17:17:52.541Z,117.11
2022-11-01T17:23:24.196Z,118.35
2022-11-01T17:28:56.023Z,118.02
2022-11-01T17:34:27.796Z,119.20
2022-11-01T17:39:59.965Z,120.49
2022-11-01T17:45:31.903Z,121.99
2022-11-01T17:51:03.462Z,120.49
2022-11-01T17:56:35.490Z,120.57
2022-11-01T18:02:07.972Z,122.52
2022-11-01T18:07:40.086Z,121.90
2022-11-01T18:13:11.692Z,122.16
2022-11-01T18:18:44.963Z,121.54
2022-11-01T18:24:22.025Z,121.90
2022-11-01T18:29:48.395Z,123.25
2022-11-01T18:35:20.261Z,122.97
2022-11-01T18:40:52.001Z,123.25
2022-11-01T18:46:25.878Z,123.15
2022-11-01T18:51:55.930Z,124.25
2022-11-01T18:57:27.792Z,124.16
2022-11-01T19:02:59.799Z,124.16
2022-11-01T19:08:31.799Z,124.53
2022-11-01T19:14:03.557Z,125.85
2022-11-01T19:19:35.336Z,126.42
2022-11-01T19:25:07.116Z,129.06
2022-11-01T19:30:39.048Z,129.46
2022-11-01T19:36:10.772Z,129.86
2022-11-01T19:41:42.579Z,131.81
2022-11-01T19:47:16.122Z,132.65
2022-11-01T19:52:47.660Z,133.39
2022-11-01T20:03:48.016Z,133.82
2022-11-01T20:09:19.914Z,136.00
2022-11-01T20:14:51.425Z,137.12
2022-11-01T20:20:23.256Z,138.83
2022-11-01T20:25:54.969Z,140.82
2022-11-01T20:31:26.924Z,142.02
2022-11-01T20:37:28.788Z,143.49
2022-11-01T20:42:30.667Z,144.86
2022-11-01T20:48:02.206Z,146.38
2022-11-01T20:53:33.897Z,147.81
2022-11-01T20:59:05.930Z,147.16
2022-11-01T21:04:37.926Z,149.53
2022-11-01T21:10:10.116Z,152.12
2022-11-01T21:15:41.854Z,153.66
2022-11-01T21:21:13.651Z,153.52
2022-11-01T21:26:45.641Z,154.51
2022-11-01T21:28:57.008Z,159.69
2022-11-01T21:40:04.273Z,161.70
2022-11-01T21:45:30.141Z,159.99
2022-11-01T21:49:51.448Z,159.38
2022-11-01T21:55:23.159Z,162.96
2022-11-01T22:00:54.910Z,165.22
2022-11-01T22:06:26.752Z,167.21
2022-11-01T22:11:58.780Z,168.05
2022-11-01T22:17:30.447Z,168.22
2022-11-01T22:23:02.487Z,168.73
2022-11-01T22:28:34.179Z,168.39
2022-11-01T22:34:06.249Z,168.90
2022-11-01T22:39:38.154Z,168.90
2022-11-01T22:45:09.998Z,170.98
2022-11-01T22:50:41.819Z,171.15
2022-11-01T22:56:13.543Z,170.98
2022-11-01T23:01:45.488Z,172.57
